sensor_id;sensor_type;location;lat;lon;timestamp;temperature;humidity
12123;DHT22;6125;59.628;17.852;2023-10-08T00:02:10;3.70;99.90
12123;DHT22;6125;59.628;17.852;2023-10-08T00:04:39;3.70;99.90
12123;DHT22;6125;59.628;17.852;2023-10-08T00:07:11;3.60;99.90
12123;DHT22;6125;59.628;17.852;2023-10-08T00:09:38;3.60;99.90
12123;DHT22;6125;59.628;17.852;2023-10-08T00:12:05;3.60;99.90
12123;DHT22;6125;59.628;17.852;2023-10-08T00:14:34;3.60;99.90
12123;DHT22;6125;59.628;17.852;2023-10-08T00:17:10;3.60;99.90
12123;DHT22;6125;59.628;17.852;2023-10-08T00:19:38;3.60;99.90
12123;DHT22;6125;59.628;17.852;2023-10-08T00:22:05;3.60;99.90
12123;DHT22;6125;59.628;17.852;2023-10-08T00:24:35;3.60;99.90
12123;DHT22;6125;59.628;17.852;2023-10-08T00:27:06;3.60;99.90
12123;DHT22;6125;59.628;17.852;2023-10-08T00:29:34;3.60;99.90
12123;DHT22;6125;59.628;17.852;2023-10-08T00:32:05;3.50;99.90
12123;DHT22;6125;59.628;17.852;2023-10-08T00:34:38;3.50;99.90
12123;DHT22;6125;59.628;17.852;2023-10-08T00:37:09;3.60;99.90
12123;DHT22;6125;59.628;17.852;2023-10-08T00:39:38;3.60;99.90
12123;DHT22;6125;59.628;17.852;2023-10-08T00:42:06;3.50;99.90
12123;DHT22;6125;59.628;17.852;2023-10-08T00:44:34;3.50;99.90
12123;DHT22;6125;59.628;17.852;2023-10-08T00:47:07;3.60;99.90
12123;DHT22;6125;59.628;17.852;2023-10-08T00:49:37;3.50;99.90
12123;DHT22;6125;59.628;17.852;2023-10-08T00:52:15;3.60;99.90
12123;DHT22;6125;59.628;17.852;2023-10-08T00:54:57;3.60;99.90
12123;DHT22;6125;59.628;17.852;2023-10-08T00:57:35;3.60;99.90
12123;DHT22;6125;59.628;17.852;2023-10-08T01:00:09;3.60;99.90
12123;DHT22;6125;59.628;17.852;2023-10-08T01:02:43;3.60;99.90
12123;DHT22;6125;59.628;17.852;2023-10-08T01:05:13;3.70;99.90
12123;DHT22;6125;59.628;17.852;2023-10-08T01:07:42;3.70;99.90
12123;DHT22;6125;59.628;17.852;2023-10-08T01:10:15;3.70;99.90
12123;DHT22;6125;59.628;17.852;2023-10-08T01:12:46;3.70;99.90
12123;DHT22;6125;59.628;17.852;2023-10-08T01:15:29;3.70;99.90
12123;DHT22;6125;59.628;17.852;2023-10-08T01:18:01;3.80;99.90
12123;DHT22;6125;59.628;17.852;2023-10-08T01:20:31;3.70;99.90
12123;DHT22;6125;59.628;17.852;2023-10-08T01:23:04;3.80;99.90
12123;DHT22;6125;59.628;17.852;2023-10-08T01:25:36;3.80;99.90
12123;DHT22;6125;59.628;17.852;2023-10-08T01:28:04;3.80;99.90
12123;DHT22;6125;59.628;17.852;2023-10-08T01:30:42;3.80;99.90
12123;DHT22;6125;59.628;17.852;2023-10-08T01:33:12;3.80;99.90
12123;DHT22;6125;59.628;17.852;2023-10-08T01:35:41;3.80;99.90
12123;DHT22;6125;59.628;17.852;2023-10-08T01:38:10;3.80;99.90
12123;DHT22;6125;59.628;17.852;2023-10-08T01:40:40;3.80;99.90
12123;DHT22;6125;59.628;17.852;2023-10-08T01:43:07;3.80;99.90
12123;DHT22;6125;59.628;17.852;2023-10-08T01:45:36;3.80;99.90
12123;DHT22;6125;59.628;17.852;2023-10-08T01:48:07;3.80;99.90
12123;DHT22;6125;59.628;17.852;2023-10-08T01:50:36;3.80;99.90
12123;DHT22;6125;59.628;17.852;2023-10-08T01:53:04;3.80;99.90
12123;DHT22;6125;59.628;17.852;2023-10-08T01:55:37;3.80;99.90
12123;DHT22;6125;59.628;17.852;2023-10-08T01:58:15;3.80;99.90
12123;DHT22;6125;59.628;17.852;2023-10-08T02:00:44;3.80;99.90
12123;DHT22;6125;59.628;17.852;2023-10-08T02:03:12;3.80;99.90
12123;DHT22;6125;59.628;17.852;2023-10-08T02:05:41;3.80;99.90
12123;DHT22;6125;59.628;17.852;2023-10-08T02:08:09;3.80;99.90
12123;DHT22;6125;59.628;17.852;2023-10-08T02:10:38;3.80;99.90
12123;DHT22;6125;59.628;17.852;2023-10-08T02:13:07;3.80;99.90
12123;DHT22;6125;59.628;17.852;2023-10-08T02:15:35;3.80;99.90
12123;DHT22;6125;59.628;17.852;2023-10-08T02:18:06;3.80;99.90
12123;DHT22;6125;59.628;17.852;2023-10-08T02:20:34;3.80;99.90
12123;DHT22;6125;59.628;17.852;2023-10-08T02:23:01;3.70;99.90
12123;DHT22;6125;59.628;17.852;2023-10-08T02:25:31;3.70;99.90
12123;DHT22;6125;59.628;17.852;2023-10-08T02:28:03;3.80;99.90
12123;DHT22;6125;59.628;17.852;2023-10-08T02:30:30;3.80;99.90
12123;DHT22;6125;59.628;17.852;2023-10-08T02:32:57;3.70;99.90
12123;DHT22;6125;59.628;17.852;2023-10-08T02:35:25;3.70;99.90
12123;DHT22;6125;59.628;17.852;2023-10-08T02:37:52;3.70;99.90
12123;DHT22;6125;59.628;17.852;2023-10-08T02:40:21;3.70;99.90
12123;DHT22;6125;59.628;17.852;2023-10-08T02:42:54;3.70;99.90
12123;DHT22;6125;59.628;17.852;2023-10-08T02:45:26;3.70;99.90
12123;DHT22;6125;59.628;17.852;2023-10-08T02:47:53;3.70;99.90
12123;DHT22;6125;59.628;17.852;2023-10-08T02:50:21;3.70;99.90
12123;DHT22;6125;59.628;17.852;2023-10-08T02:52:48;3.70;99.90
12123;DHT22;6125;59.628;17.852;2023-10-08T02:55:16;3.70;99.90
12123;DHT22;6125;59.628;17.852;2023-10-08T02:57:54;3.70;99.90
12123;DHT22;6125;59.628;17.852;2023-10-08T03:00:22;3.70;99.90
12123;DHT22;6125;59.628;17.852;2023-10-08T03:02:56;3.70;99.90
12123;DHT22;6125;59.628;17.852;2023-10-08T03:05:27;3.70;99.90
12123;DHT22;6125;59.628;17.852;2023-10-08T03:08:01;3.70;99.90
12123;DHT22;6125;59.628;17.852;2023-10-08T03:10:28;3.80;99.90
12123;DHT22;6125;59.628;17.852;2023-10-08T03:12:59;3.80;99.90
12123;DHT22;6125;59.628;17.852;2023-10-08T03:15:30;3.80;99.90
12123;DHT22;6125;59.628;17.852;2023-10-08T03:18:06;3.80;99.90
12123;DHT22;6125;59.628;17.852;2023-10-08T03:20:37;3.80;99.90
12123;DHT22;6125;59.628;17.852;2023-10-08T03:23:04;3.80;99.90
12123;DHT22;6125;59.628;17.852;2023-10-08T03:25:38;3.80;99.90
12123;DHT22;6125;59.628;17.852;2023-10-08T03:28:07;3.80;99.90
12123;DHT22;6125;59.628;17.852;2023-10-08T03:30:38;3.90;99.90
12123;DHT22;6125;59.628;17.852;2023-10-08T03:33:16;3.90;99.90
12123;DHT22;6125;59.628;17.852;2023-10-08T03:35:49;3.90;99.90
12123;DHT22;6125;59.628;17.852;2023-10-08T03:38:19;3.80;99.90
12123;DHT22;6125;59.628;17.852;2023-10-08T03:40:54;3.80;99.90
12123;DHT22;6125;59.628;17.852;2023-10-08T03:43:29;3.80;99.90
12123;DHT22;6125;59.628;17.852;2023-10-08T03:46:13;3.80;99.90
12123;DHT22;6125;59.628;17.852;2023-10-08T03:48:43;3.80;99.90
12123;DHT22;6125;59.628;17.852;2023-10-08T03:51:11;3.80;99.90
12123;DHT22;6125;59.628;17.852;2023-10-08T03:53:40;3.80;99.90
12123;DHT22;6125;59.628;17.852;2023-10-08T03:56:24;3.80;99.90
12123;DHT22;6125;59.628;17.852;2023-10-08T03:58:52;3.80;99.90
12123;DHT22;6125;59.628;17.852;2023-10-08T04:01:21;3.80;99.90
12123;DHT22;6125;59.628;17.852;2023-10-08T04:03:51;3.80;99.90
12123;DHT22;6125;59.628;17.852;2023-10-08T04:06:28;3.90;99.90
12123;DHT22;6125;59.628;17.852;2023-10-08T04:09:04;3.90;99.90
12123;DHT22;6125;59.628;17.852;2023-10-08T04:11:50;3.90;99.90
12123;DHT22;6125;59.628;17.852;2023-10-08T04:14:22;3.90;99.90
12123;DHT22;6125;59.628;17.852;2023-10-08T04:16:50;3.90;99.90
12123;DHT22;6125;59.628;17.852;2023-10-08T04:19:21;3.90;99.90
12123;DHT22;6125;59.628;17.852;2023-10-08T04:21:52;3.90;99.90
12123;DHT22;6125;59.628;17.852;2023-10-08T04:24:24;3.90;99.90
12123;DHT22;6125;59.628;17.852;2023-10-08T04:27:00;3.90;99.90
12123;DHT22;6125;59.628;17.852;2023-10-08T04:29:28;3.90;99.90
12123;DHT22;6125;59.628;17.852;2023-10-08T04:31:58;4.00;99.90
12123;DHT22;6125;59.628;17.852;2023-10-08T04:34:35;4.00;99.90
12123;DHT22;6125;59.628;17.852;2023-10-08T04:37:02;4.00;99.90
12123;DHT22;6125;59.628;17.852;2023-10-08T04:39:37;4.00;99.90
12123;DHT22;6125;59.628;17.852;2023-10-08T04:42:06;4.00;99.90
12123;DHT22;6125;59.628;17.852;2023-10-08T04:44:36;4.00;99.90
12123;DHT22;6125;59.628;17.852;2023-10-08T04:47:06;4.00;99.90
12123;DHT22;6125;59.628;17.852;2023-10-08T04:49:36;4.00;99.90
12123;DHT22;6125;59.628;17.852;2023-10-08T04:52:11;4.00;99.90
12123;DHT22;6125;59.628;17.852;2023-10-08T04:54:41;4.10;99.90
12123;DHT22;6125;59.628;17.852;2023-10-08T04:57:17;4.00;99.90
12123;DHT22;6125;59.628;17.852;2023-10-08T04:59:47;4.00;99.90
12123;DHT22;6125;59.628;17.852;2023-10-08T05:02:16;4.00;99.90
12123;DHT22;6125;59.628;17.852;2023-10-08T05:04:49;4.00;99.90
12123;DHT22;6125;59.628;17.852;2023-10-08T05:07:48;4.00;99.90
12123;DHT22;6125;59.628;17.852;2023-10-08T05:10:42;4.00;99.90
12123;DHT22;6125;59.628;17.852;2023-10-08T05:13:26;4.00;99.90
12123;DHT22;6125;59.628;17.852;2023-10-08T05:15:58;4.00;99.90
12123;DHT22;6125;59.628;17.852;2023-10-08T05:18:55;4.10;99.90
12123;DHT22;6125;59.628;17.852;2023-10-08T05:21:41;4.00;99.90
12123;DHT22;6125;59.628;17.852;2023-10-08T05:24:18;4.00;99.90
12123;DHT22;6125;59.628;17.852;2023-10-08T05:27:04;4.10;99.90
12123;DHT22;6125;59.628;17.852;2023-10-08T05:30:02;4.10;99.90
12123;DHT22;6125;59.628;17.852;2023-10-08T05:32:41;4.10;99.90
12123;DHT22;6125;59.628;17.852;2023-10-08T05:35:31;4.10;99.90
12123;DHT22;6125;59.628;17.852;2023-10-08T05:38:15;4.10;99.90
12123;DHT22;6125;59.628;17.852;2023-10-08T05:40:48;4.10;99.90
12123;DHT22;6125;59.628;17.852;2023-10-08T05:43:32;4.10;99.90
12123;DHT22;6125;59.628;17.852;2023-10-08T05:46:16;4.10;99.90
12123;DHT22;6125;59.628;17.852;2023-10-08T05:49:00;4.10;99.90
12123;DHT22;6125;59.628;17.852;2023-10-08T05:51:29;4.10;99.90
12123;DHT22;6125;59.628;17.852;2023-10-08T05:54:13;4.20;99.90
12123;DHT22;6125;59.628;17.852;2023-10-08T05:57:04;4.20;99.90
12123;DHT22;6125;59.628;17.852;2023-10-08T05:59:41;4.30;99.90
12123;DHT22;6125;59.628;17.852;2023-10-08T06:02:45;4.30;99.90
12123;DHT22;6125;59.628;17.852;2023-10-08T06:05:26;4.30;99.90
12123;DHT22;6125;59.628;17.852;2023-10-08T06:07:58;4.30;99.90
12123;DHT22;6125;59.628;17.852;2023-10-08T06:10:39;4.40;99.90
12123;DHT22;6125;59.628;17.852;2023-10-08T06:13:12;4.40;99.90
12123;DHT22;6125;59.628;17.852;2023-10-08T06:15:43;4.40;99.90
12123;DHT22;6125;59.628;17.852;2023-10-08T06:18:14;4.40;99.90
12123;DHT22;6125;59.628;17.852;2023-10-08T06:20:42;4.50;99.90
12123;DHT22;6125;59.628;17.852;2023-10-08T06:23:10;4.50;99.90
12123;DHT22;6125;59.628;17.852;2023-10-08T06:25:39;4.50;99.90
12123;DHT22;6125;59.628;17.852;2023-10-08T06:28:13;4.60;99.90
12123;DHT22;6125;59.628;17.852;2023-10-08T06:30:41;4.60;99.90
12123;DHT22;6125;59.628;17.852;2023-10-08T06:33:15;4.60;99.90
12123;DHT22;6125;59.628;17.852;2023-10-08T06:35:43;4.70;99.90
12123;DHT22;6125;59.628;17.852;2023-10-08T06:38:22;4.70;99.90
12123;DHT22;6125;59.628;17.852;2023-10-08T06:40:51;4.70;99.90
12123;DHT22;6125;59.628;17.852;2023-10-08T06:43:19;4.80;99.90
12123;DHT22;6125;59.628;17.852;2023-10-08T06:45:50;4.80;99.90
12123;DHT22;6125;59.628;17.852;2023-10-08T06:48:19;4.80;99.90
12123;DHT22;6125;59.628;17.852;2023-10-08T06:50:48;4.90;99.90
12123;DHT22;6125;59.628;17.852;2023-10-08T06:53:15;4.90;99.90
12123;DHT22;6125;59.628;17.852;2023-10-08T06:55:44;4.90;99.90
12123;DHT22;6125;59.628;17.852;2023-10-08T06:58:15;5.00;99.90
12123;DHT22;6125;59.628;17.852;2023-10-08T07:00:43;5.00;99.90
12123;DHT22;6125;59.628;17.852;2023-10-08T07:03:15;5.20;99.90
12123;DHT22;6125;59.628;17.852;2023-10-08T07:05:44;5.20;99.90
12123;DHT22;6125;59.628;17.852;2023-10-08T07:08:20;5.20;99.90
12123;DHT22;6125;59.628;17.852;2023-10-08T07:10:49;5.20;99.90
12123;DHT22;6125;59.628;17.852;2023-10-08T07:13:19;5.30;99.90
12123;DHT22;6125;59.628;17.852;2023-10-08T07:15:48;5.30;99.90
12123;DHT22;6125;59.628;17.852;2023-10-08T07:18:16;5.30;99.90
12123;DHT22;6125;59.628;17.852;2023-10-08T07:20:51;5.30;99.90
12123;DHT22;6125;59.628;17.852;2023-10-08T07:23:20;5.40;99.90
12123;DHT22;6125;59.628;17.852;2023-10-08T07:25:54;5.40;99.90
12123;DHT22;6125;59.628;17.852;2023-10-08T07:28:37;5.50;99.90
12123;DHT22;6125;59.628;17.852;2023-10-08T07:31:06;5.50;99.90
12123;DHT22;6125;59.628;17.852;2023-10-08T07:33:36;5.50;99.90
12123;DHT22;6125;59.628;17.852;2023-10-08T07:36:03;5.50;99.90
12123;DHT22;6125;59.628;17.852;2023-10-08T07:38:39;5.60;99.90
12123;DHT22;6125;59.628;17.852;2023-10-08T07:41:08;5.70;99.90
12123;DHT22;6125;59.628;17.852;2023-10-08T07:43:36;5.70;99.90
12123;DHT22;6125;59.628;17.852;2023-10-08T07:46:03;5.70;99.90
12123;DHT22;6125;59.628;17.852;2023-10-08T07:48:31;5.80;99.90
12123;DHT22;6125;59.628;17.852;2023-10-08T07:50:58;5.80;99.90
12123;DHT22;6125;59.628;17.852;2023-10-08T07:53:25;5.90;99.90
12123;DHT22;6125;59.628;17.852;2023-10-08T07:56:04;5.90;99.90
12123;DHT22;6125;59.628;17.852;2023-10-08T07:58:32;5.90;99.90
12123;DHT22;6125;59.628;17.852;2023-10-08T08:01:05;5.90;99.90
12123;DHT22;6125;59.628;17.852;2023-10-08T08:03:33;6.00;99.90
12123;DHT22;6125;59.628;17.852;2023-10-08T08:06:03;6.00;99.90
12123;DHT22;6125;59.628;17.852;2023-10-08T08:08:32;6.10;99.90
12123;DHT22;6125;59.628;17.852;2023-10-08T08:10:59;6.10;99.90
12123;DHT22;6125;59.628;17.852;2023-10-08T08:13:31;6.20;99.90
12123;DHT22;6125;59.628;17.852;2023-10-08T08:15:59;6.20;99.90
12123;DHT22;6125;59.628;17.852;2023-10-08T08:18:37;6.20;99.90
12123;DHT22;6125;59.628;17.852;2023-10-08T08:21:09;6.20;99.90
12123;DHT22;6125;59.628;17.852;2023-10-08T08:23:40;6.30;99.90
12123;DHT22;6125;59.628;17.852;2023-10-08T08:26:14;6.30;99.90
12123;DHT22;6125;59.628;17.852;2023-10-08T08:28:53;6.30;99.90
12123;DHT22;6125;59.628;17.852;2023-10-08T08:31:23;6.30;99.90
12123;DHT22;6125;59.628;17.852;2023-10-08T08:33:52;6.40;99.90
12123;DHT22;6125;59.628;17.852;2023-10-08T08:36:28;6.50;99.90
12123;DHT22;6125;59.628;17.852;2023-10-08T08:38:57;6.50;99.90
12123;DHT22;6125;59.628;17.852;2023-10-08T08:41:25;6.60;99.90
12123;DHT22;6125;59.628;17.852;2023-10-08T08:43:53;6.60;99.90
12123;DHT22;6125;59.628;17.852;2023-10-08T08:46:30;6.70;99.90
12123;DHT22;6125;59.628;17.852;2023-10-08T08:49:02;6.80;99.90
12123;DHT22;6125;59.628;17.852;2023-10-08T08:51:30;6.80;99.90
12123;DHT22;6125;59.628;17.852;2023-10-08T08:53:57;6.90;99.90
12123;DHT22;6125;59.628;17.852;2023-10-08T08:56:26;6.90;99.90
12123;DHT22;6125;59.628;17.852;2023-10-08T08:58:55;6.90;99.90
12123;DHT22;6125;59.628;17.852;2023-10-08T09:01:25;7.00;99.90
12123;DHT22;6125;59.628;17.852;2023-10-08T09:04:00;7.00;99.90
12123;DHT22;6125;59.628;17.852;2023-10-08T09:06:31;7.10;99.90
12123;DHT22;6125;59.628;17.852;2023-10-08T09:08:59;7.10;99.90
12123;DHT22;6125;59.628;17.852;2023-10-08T09:11:48;7.10;99.90
12123;DHT22;6125;59.628;17.852;2023-10-08T09:14:19;7.20;99.90
12123;DHT22;6125;59.628;17.852;2023-10-08T09:16:46;7.20;99.90
12123;DHT22;6125;59.628;17.852;2023-10-08T09:19:15;7.20;99.90
12123;DHT22;6125;59.628;17.852;2023-10-08T09:21:46;7.20;99.90
12123;DHT22;6125;59.628;17.852;2023-10-08T09:24:26;7.30;99.90
12123;DHT22;6125;59.628;17.852;2023-10-08T09:26:54;7.30;99.90
12123;DHT22;6125;59.628;17.852;2023-10-08T09:29:22;7.40;99.90
12123;DHT22;6125;59.628;17.852;2023-10-08T09:31:53;7.40;99.90
12123;DHT22;6125;59.628;17.852;2023-10-08T09:34:26;7.50;99.90
12123;DHT22;6125;59.628;17.852;2023-10-08T09:36:56;7.50;99.90
12123;DHT22;6125;59.628;17.852;2023-10-08T09:39:26;7.60;99.90
12123;DHT22;6125;59.628;17.852;2023-10-08T09:41:55;7.60;99.90
12123;DHT22;6125;59.628;17.852;2023-10-08T09:44:23;7.60;99.90
12123;DHT22;6125;59.628;17.852;2023-10-08T09:46:53;7.50;99.90
12123;DHT22;6125;59.628;17.852;2023-10-08T09:49:29;7.60;99.90
12123;DHT22;6125;59.628;17.852;2023-10-08T09:52:03;7.70;99.90
12123;DHT22;6125;59.628;17.852;2023-10-08T09:54:37;7.70;99.90
12123;DHT22;6125;59.628;17.852;2023-10-08T09:57:08;7.70;99.90
12123;DHT22;6125;59.628;17.852;2023-10-08T09:59:36;7.90;99.90
12123;DHT22;6125;59.628;17.852;2023-10-08T10:02:05;7.90;99.90
12123;DHT22;6125;59.628;17.852;2023-10-08T10:04:42;7.90;99.90
12123;DHT22;6125;59.628;17.852;2023-10-08T10:07:10;8.00;99.90
12123;DHT22;6125;59.628;17.852;2023-10-08T10:09:39;8.10;99.90
12123;DHT22;6125;59.628;17.852;2023-10-08T10:12:11;8.10;99.90
12123;DHT22;6125;59.628;17.852;2023-10-08T10:14:44;8.10;99.90
12123;DHT22;6125;59.628;17.852;2023-10-08T10:17:15;8.10;99.90
12123;DHT22;6125;59.628;17.852;2023-10-08T10:19:54;8.20;99.90
12123;DHT22;6125;59.628;17.852;2023-10-08T10:22:28;8.20;99.90
12123;DHT22;6125;59.628;17.852;2023-10-08T10:24:57;8.20;99.90
12123;DHT22;6125;59.628;17.852;2023-10-08T10:27:26;8.20;99.90
12123;DHT22;6125;59.628;17.852;2023-10-08T10:30:01;8.30;99.90
12123;DHT22;6125;59.628;17.852;2023-10-08T10:32:34;8.40;99.90
12123;DHT22;6125;59.628;17.852;2023-10-08T10:35:03;8.50;99.90
12123;DHT22;6125;59.628;17.852;2023-10-08T10:37:32;8.50;99.90
12123;DHT22;6125;59.628;17.852;2023-10-08T10:40:08;8.60;99.90
12123;DHT22;6125;59.628;17.852;2023-10-08T10:42:38;8.60;99.90
12123;DHT22;6125;59.628;17.852;2023-10-08T10:45:13;8.60;99.90
12123;DHT22;6125;59.628;17.852;2023-10-08T10:48:00;8.60;99.90
12123;DHT22;6125;59.628;17.852;2023-10-08T10:50:39;8.70;99.90
12123;DHT22;6125;59.628;17.852;2023-10-08T10:53:14;8.70;99.90
12123;DHT22;6125;59.628;17.852;2023-10-08T10:55:43;8.70;99.90
12123;DHT22;6125;59.628;17.852;2023-10-08T10:58:24;8.70;99.90
12123;DHT22;6125;59.628;17.852;2023-10-08T11:00:52;8.80;99.90
12123;DHT22;6125;59.628;17.852;2023-10-08T11:03:25;8.70;99.90
12123;DHT22;6125;59.628;17.852;2023-10-08T11:05:57;8.70;99.90
12123;DHT22;6125;59.628;17.852;2023-10-08T11:08:31;8.90;99.90
12123;DHT22;6125;59.628;17.852;2023-10-08T11:11:01;8.80;99.90
12123;DHT22;6125;59.628;17.852;2023-10-08T11:13:33;8.90;99.90
12123;DHT22;6125;59.628;17.852;2023-10-08T11:16:05;8.90;99.90
12123;DHT22;6125;59.628;17.852;2023-10-08T11:18:33;8.90;99.90
12123;DHT22;6125;59.628;17.852;2023-10-08T11:21:09;8.90;99.90
12123;DHT22;6125;59.628;17.852;2023-10-08T11:23:51;9.00;99.90
12123;DHT22;6125;59.628;17.852;2023-10-08T11:26:25;9.00;99.90
12123;DHT22;6125;59.628;17.852;2023-10-08T11:29:01;9.10;99.90
12123;DHT22;6125;59.628;17.852;2023-10-08T11:31:29;9.20;99.90
12123;DHT22;6125;59.628;17.852;2023-10-08T11:34:00;9.30;99.90
12123;DHT22;6125;59.628;17.852;2023-10-08T11:36:35;9.40;99.90
12123;DHT22;6125;59.628;17.852;2023-10-08T11:39:14;9.40;99.90
12123;DHT22;6125;59.628;17.852;2023-10-08T11:41:55;9.40;99.90
12123;DHT22;6125;59.628;17.852;2023-10-08T11:44:22;9.50;99.90
12123;DHT22;6125;59.628;17.852;2023-10-08T11:46:56;9.50;99.90
12123;DHT22;6125;59.628;17.852;2023-10-08T11:49:30;9.50;99.90
12123;DHT22;6125;59.628;17.852;2023-10-08T11:52:03;9.50;99.90
12123;DHT22;6125;59.628;17.852;2023-10-08T11:54:30;9.60;99.90
12123;DHT22;6125;59.628;17.852;2023-10-08T11:56:59;9.60;99.90
12123;DHT22;6125;59.628;17.852;2023-10-08T11:59:28;9.70;99.90
12123;DHT22;6125;59.628;17.852;2023-10-08T12:01:55;9.80;99.90
12123;DHT22;6125;59.628;17.852;2023-10-08T12:04:22;9.70;99.90
12123;DHT22;6125;59.628;17.852;2023-10-08T12:06:50;9.70;99.90
12123;DHT22;6125;59.628;17.852;2023-10-08T12:09:19;9.70;99.90
12123;DHT22;6125;59.628;17.852;2023-10-08T12:11:47;9.80;99.90
12123;DHT22;6125;59.628;17.852;2023-10-08T12:14:14;9.90;99.90
12123;DHT22;6125;59.628;17.852;2023-10-08T12:16:42;10.00;99.90
12123;DHT22;6125;59.628;17.852;2023-10-08T12:19:11;10.10;99.90
12123;DHT22;6125;59.628;17.852;2023-10-08T12:21:42;10.10;99.90
12123;DHT22;6125;59.628;17.852;2023-10-08T12:24:12;10.10;99.90
12123;DHT22;6125;59.628;17.852;2023-10-08T12:26:40;10.10;99.90
12123;DHT22;6125;59.628;17.852;2023-10-08T12:29:11;10.20;99.90
12123;DHT22;6125;59.628;17.852;2023-10-08T12:31:40;10.30;99.90
12123;DHT22;6125;59.628;17.852;2023-10-08T12:34:07;10.50;99.90
12123;DHT22;6125;59.628;17.852;2023-10-08T12:36:37;10.60;99.90
12123;DHT22;6125;59.628;17.852;2023-10-08T12:39:05;10.70;99.90
12123;DHT22;6125;59.628;17.852;2023-10-08T12:41:41;10.80;99.90
12123;DHT22;6125;59.628;17.852;2023-10-08T12:44:09;10.70;99.90
12123;DHT22;6125;59.628;17.852;2023-10-08T12:46:36;10.70;99.90
12123;DHT22;6125;59.628;17.852;2023-10-08T12:49:04;10.70;99.90
12123;DHT22;6125;59.628;17.852;2023-10-08T12:51:32;10.60;99.90
12123;DHT22;6125;59.628;17.852;2023-10-08T12:54:01;10.60;99.90
12123;DHT22;6125;59.628;17.852;2023-10-08T12:56:33;10.70;99.90
12123;DHT22;6125;59.628;17.852;2023-10-08T12:59:05;10.80;99.90
12123;DHT22;6125;59.628;17.852;2023-10-08T13:01:33;10.80;99.90
12123;DHT22;6125;59.628;17.852;2023-10-08T13:04:02;10.80;99.90
12123;DHT22;6125;59.628;17.852;2023-10-08T13:06:33;10.70;99.90
12123;DHT22;6125;59.628;17.852;2023-10-08T13:09:03;10.70;99.90
12123;DHT22;6125;59.628;17.852;2023-10-08T13:11:35;10.70;99.90
12123;DHT22;6125;59.628;17.852;2023-10-08T13:14:06;10.70;99.90
12123;DHT22;6125;59.628;17.852;2023-10-08T13:16:33;10.60;99.90
12123;DHT22;6125;59.628;17.852;2023-10-08T13:19:03;10.70;99.90
12123;DHT22;6125;59.628;17.852;2023-10-08T13:21:33;10.80;99.90
12123;DHT22;6125;59.628;17.852;2023-10-08T13:24:03;10.90;99.90
12123;DHT22;6125;59.628;17.852;2023-10-08T13:26:34;11.00;99.90
12123;DHT22;6125;59.628;17.852;2023-10-08T13:29:03;11.00;99.90
12123;DHT22;6125;59.628;17.852;2023-10-08T13:31:32;11.10;99.90
12123;DHT22;6125;59.628;17.852;2023-10-08T13:34:02;11.10;99.90
12123;DHT22;6125;59.628;17.852;2023-10-08T13:36:34;11.10;99.90
12123;DHT22;6125;59.628;17.852;2023-10-08T13:39:04;11.20;99.90
12123;DHT22;6125;59.628;17.852;2023-10-08T13:41:34;11.10;99.90
12123;DHT22;6125;59.628;17.852;2023-10-08T13:44:03;11.00;99.90
12123;DHT22;6125;59.628;17.852;2023-10-08T13:46:33;10.90;99.90
12123;DHT22;6125;59.628;17.852;2023-10-08T13:49:02;10.50;99.90
12123;DHT22;6125;59.628;17.852;2023-10-08T13:51:31;10.20;99.90
12123;DHT22;6125;59.628;17.852;2023-10-08T13:54:00;10.10;99.90
12123;DHT22;6125;59.628;17.852;2023-10-08T13:56:32;10.10;99.90
12123;DHT22;6125;59.628;17.852;2023-10-08T13:59:00;10.00;99.90
12123;DHT22;6125;59.628;17.852;2023-10-08T14:01:40;10.00;99.90
12123;DHT22;6125;59.628;17.852;2023-10-08T14:04:09;9.90;99.90
12123;DHT22;6125;59.628;17.852;2023-10-08T14:06:38;9.90;99.90
12123;DHT22;6125;59.628;17.852;2023-10-08T14:09:08;9.90;99.90
12123;DHT22;6125;59.628;17.852;2023-10-08T14:11:38;9.80;99.90
12123;DHT22;6125;59.628;17.852;2023-10-08T14:14:05;9.80;99.90
12123;DHT22;6125;59.628;17.852;2023-10-08T14:16:38;9.80;99.90
12123;DHT22;6125;59.628;17.852;2023-10-08T14:19:07;9.70;99.90
12123;DHT22;6125;59.628;17.852;2023-10-08T14:21:38;9.60;99.90
12123;DHT22;6125;59.628;17.852;2023-10-08T14:24:15;9.60;99.90
12123;DHT22;6125;59.628;17.852;2023-10-08T14:26:42;9.60;99.90
12123;DHT22;6125;59.628;17.852;2023-10-08T14:29:09;9.60;99.90
12123;DHT22;6125;59.628;17.852;2023-10-08T14:31:42;9.60;99.90
12123;DHT22;6125;59.628;17.852;2023-10-08T14:34:14;9.50;99.90
12123;DHT22;6125;59.628;17.852;2023-10-08T14:37:08;9.50;99.90
12123;DHT22;6125;59.628;17.852;2023-10-08T14:39:52;9.40;99.90
12123;DHT22;6125;59.628;17.852;2023-10-08T14:42:37;9.40;99.90
12123;DHT22;6125;59.628;17.852;2023-10-08T14:45:23;9.40;99.90
12123;DHT22;6125;59.628;17.852;2023-10-08T14:47:54;9.40;99.90
12123;DHT22;6125;59.628;17.852;2023-10-08T14:50:21;9.40;99.90
12123;DHT22;6125;59.628;17.852;2023-10-08T14:52:49;9.30;99.90
12123;DHT22;6125;59.628;17.852;2023-10-08T14:55:16;9.30;99.90
12123;DHT22;6125;59.628;17.852;2023-10-08T14:57:47;9.30;99.90
12123;DHT22;6125;59.628;17.852;2023-10-08T15:00:14;9.20;99.90
12123;DHT22;6125;59.628;17.852;2023-10-08T15:02:41;9.20;99.90
12123;DHT22;6125;59.628;17.852;2023-10-08T15:05:10;9.20;99.90
12123;DHT22;6125;59.628;17.852;2023-10-08T15:07:39;9.20;99.90
12123;DHT22;6125;59.628;17.852;2023-10-08T15:10:08;9.10;99.90
12123;DHT22;6125;59.628;17.852;2023-10-08T15:12:36;9.10;99.90
12123;DHT22;6125;59.628;17.852;2023-10-08T15:15:04;9.10;99.90
12123;DHT22;6125;59.628;17.852;2023-10-08T15:17:39;9.10;99.90
12123;DHT22;6125;59.628;17.852;2023-10-08T15:20:08;9.00;99.90
12123;DHT22;6125;59.628;17.852;2023-10-08T15:22:41;9.00;99.90
12123;DHT22;6125;59.628;17.852;2023-10-08T15:25:09;9.00;99.90
12123;DHT22;6125;59.628;17.852;2023-10-08T15:27:37;9.00;99.90
12123;DHT22;6125;59.628;17.852;2023-10-08T15:30:07;9.00;99.90
12123;DHT22;6125;59.628;17.852;2023-10-08T15:32:37;9.00;99.90
12123;DHT22;6125;59.628;17.852;2023-10-08T15:35:06;8.90;99.90
12123;DHT22;6125;59.628;17.852;2023-10-08T15:37:35;8.90;99.90
12123;DHT22;6125;59.628;17.852;2023-10-08T15:40:05;8.80;99.90
12123;DHT22;6125;59.628;17.852;2023-10-08T15:42:32;8.80;99.90
12123;DHT22;6125;59.628;17.852;2023-10-08T15:45:01;8.80;99.90
12123;DHT22;6125;59.628;17.852;2023-10-08T15:47:29;8.70;99.90
12123;DHT22;6125;59.628;17.852;2023-10-08T15:49:57;8.60;99.90
12123;DHT22;6125;59.628;17.852;2023-10-08T15:52:25;8.60;99.90
12123;DHT22;6125;59.628;17.852;2023-10-08T15:54:53;8.60;99.90
12123;DHT22;6125;59.628;17.852;2023-10-08T15:57:21;8.50;99.90
12123;DHT22;6125;59.628;17.852;2023-10-08T15:59:49;8.40;99.90
12123;DHT22;6125;59.628;17.852;2023-10-08T16:02:16;8.40;99.90
12123;DHT22;6125;59.628;17.852;2023-10-08T16:04:44;8.30;99.90
12123;DHT22;6125;59.628;17.852;2023-10-08T16:07:11;8.20;99.90
12123;DHT22;6125;59.628;17.852;2023-10-08T16:09:39;8.20;99.90
12123;DHT22;6125;59.628;17.852;2023-10-08T16:12:07;8.10;99.90
12123;DHT22;6125;59.628;17.852;2023-10-08T16:14:36;8.10;99.90